sensor_id;sensor_type;location;lat;lon;timestamp;P1;durP1;ratioP1;P2;durP2;ratioP2
14584;SDS011;7379;51.506;11.876;2023-04-24T00:01:44;2.78;;;2.20;;
14584;SDS011;7379;51.506;11.876;2023-04-24T00:04:13;2.20;;;1.92;;
14584;SDS011;7379;51.506;11.876;2023-04-24T00:06:41;3.88;;;2.00;;
14584;SDS011;7379;51.506;11.876;2023-04-24T00:09:08;3.97;;;2.05;;
14584;SDS011;7379;51.506;11.876;2023-04-24T00:11:36;3.97;;;2.00;;
14584;SDS011;7379;51.506;11.876;2023-04-24T00:14:02;2.13;;;1.92;;
14584;SDS011;7379;51.506;11.876;2023-04-24T00:16:29;4.57;;;2.25;;
14584;SDS011;7379;51.506;11.876;2023-04-24T00:18:56;2.33;;;2.13;;
14584;SDS011;7379;51.506;11.876;2023-04-24T00:21:24;2.10;;;1.90;;
14584;SDS011;7379;51.506;11.876;2023-04-24T00:23:51;2.10;;;1.90;;
14584;SDS011;7379;51.506;11.876;2023-04-24T00:26:19;3.10;;;1.88;;
14584;SDS011;7379;51.506;11.876;2023-04-24T00:28:45;2.17;;;1.98;;
14584;SDS011;7379;51.506;11.876;2023-04-24T00:31:12;3.38;;;2.20;;
14584;SDS011;7379;51.506;11.876;2023-04-24T00:33:39;2.42;;;2.00;;
14584;SDS011;7379;51.506;11.876;2023-04-24T00:36:06;3.22;;;1.80;;
14584;SDS011;7379;51.506;11.876;2023-04-24T00:38:34;2.10;;;1.80;;
14584;SDS011;7379;51.506;11.876;2023-04-24T00:41:01;2.83;;;1.80;;
14584;SDS011;7379;51.506;11.876;2023-04-24T00:43:28;2.10;;;1.90;;
14584;SDS011;7379;51.506;11.876;2023-04-24T00:45:55;2.03;;;1.65;;
14584;SDS011;7379;51.506;11.876;2023-04-24T00:48:22;2.10;;;1.90;;
14584;SDS011;7379;51.506;11.876;2023-04-24T00:50:49;2.72;;;1.98;;
14584;SDS011;7379;51.506;11.876;2023-04-24T00:53:16;2.63;;;1.63;;
14584;SDS011;7379;51.506;11.876;2023-04-24T00:55:44;2.22;;;1.92;;
14584;SDS011;7379;51.506;11.876;2023-04-24T00:58:11;1.80;;;1.70;;
14584;SDS011;7379;51.506;11.876;2023-04-24T01:00:38;1.67;;;1.58;;
14584;SDS011;7379;51.506;11.876;2023-04-24T01:03:05;1.73;;;1.63;;
14584;SDS011;7379;51.506;11.876;2023-04-24T01:05:33;2.10;;;1.60;;
14584;SDS011;7379;51.506;11.876;2023-04-24T01:08:00;3.45;;;1.83;;
14584;SDS011;7379;51.506;11.876;2023-04-24T01:10:27;1.90;;;1.70;;
14584;SDS011;7379;51.506;11.876;2023-04-24T01:12:58;2.00;;;1.80;;
14584;SDS011;7379;51.506;11.876;2023-04-24T01:15:25;2.10;;;1.90;;
14584;SDS011;7379;51.506;11.876;2023-04-24T01:17:52;2.30;;;1.60;;
14584;SDS011;7379;51.506;11.876;2023-04-24T01:20:19;2.58;;;1.60;;
14584;SDS011;7379;51.506;11.876;2023-04-24T01:22:48;3.03;;;1.70;;
14584;SDS011;7379;51.506;11.876;2023-04-24T01:25:15;1.85;;;1.63;;
14584;SDS011;7379;51.506;11.876;2023-04-24T01:27:42;1.58;;;1.38;;
14584;SDS011;7379;51.506;11.876;2023-04-24T01:30:09;1.90;;;1.50;;
14584;SDS011;7379;51.506;11.876;2023-04-24T01:32:37;1.63;;;1.50;;
14584;SDS011;7379;51.506;11.876;2023-04-24T01:35:04;1.50;;;1.40;;
14584;SDS011;7379;51.506;11.876;2023-04-24T01:37:32;1.27;;;1.13;;
14584;SDS011;7379;51.506;11.876;2023-04-24T01:40:03;1.65;;;1.48;;
14584;SDS011;7379;51.506;11.876;2023-04-24T01:42:31;2.47;;;1.40;;
14584;SDS011;7379;51.506;11.876;2023-04-24T01:44:58;1.60;;;1.50;;
14584;SDS011;7379;51.506;11.876;2023-04-24T01:47:25;1.55;;;1.27;;
14584;SDS011;7379;51.506;11.876;2023-04-24T01:49:52;1.60;;;1.48;;
14584;SDS011;7379;51.506;11.876;2023-04-24T01:52:19;1.33;;;1.15;;
14584;SDS011;7379;51.506;11.876;2023-04-24T01:54:46;1.90;;;1.35;;
14584;SDS011;7379;51.506;11.876;2023-04-24T01:57:14;1.40;;;1.30;;
14584;SDS011;7379;51.506;11.876;2023-04-24T01:59:42;1.52;;;1.30;;
14584;SDS011;7379;51.506;11.876;2023-04-24T02:02:09;1.17;;;1.02;;
14584;SDS011;7379;51.506;11.876;2023-04-24T02:04:36;1.20;;;1.10;;
14584;SDS011;7379;51.506;11.876;2023-04-24T02:07:03;1.55;;;1.30;;
14584;SDS011;7379;51.506;11.876;2023-04-24T02:09:30;1.30;;;1.20;;
14584;SDS011;7379;51.506;11.876;2023-04-24T02:11:56;2.35;;;1.30;;
14584;SDS011;7379;51.506;11.876;2023-04-24T02:14:25;1.30;;;1.20;;
14584;SDS011;7379;51.506;11.876;2023-04-24T02:16:51;1.95;;;1.30;;
14584;SDS011;7379;51.506;11.876;2023-04-24T02:19:19;1.27;;;1.17;;
14584;SDS011;7379;51.506;11.876;2023-04-24T02:21:46;1.20;;;1.10;;
14584;SDS011;7379;51.506;11.876;2023-04-24T02:24:12;2.33;;;1.40;;
14584;SDS011;7379;51.506;11.876;2023-04-24T02:26:39;1.30;;;1.20;;
14584;SDS011;7379;51.506;11.876;2023-04-24T02:29:06;0.93;;;0.93;;
14584;SDS011;7379;51.506;11.876;2023-04-24T02:31:34;1.60;;;1.48;;
14584;SDS011;7379;51.506;11.876;2023-04-24T02:34:01;1.58;;;1.48;;
14584;SDS011;7379;51.506;11.876;2023-04-24T02:36:28;2.05;;;1.38;;
14584;SDS011;7379;51.506;11.876;2023-04-24T02:38:55;1.33;;;1.23;;
14584;SDS011;7379;51.506;11.876;2023-04-24T02:41:22;2.20;;;1.30;;
14584;SDS011;7379;51.506;11.876;2023-04-24T02:43:48;1.40;;;1.30;;
14584;SDS011;7379;51.506;11.876;2023-04-24T02:46:15;1.77;;;1.30;;
14584;SDS011;7379;51.506;11.876;2023-04-24T02:48:43;1.88;;;1.20;;
14584;SDS011;7379;51.506;11.876;2023-04-24T02:51:10;2.85;;;1.23;;
14584;SDS011;7379;51.506;11.876;2023-04-24T02:53:37;1.60;;;1.48;;
14584;SDS011;7379;51.506;11.876;2023-04-24T02:56:04;1.30;;;1.20;;
14584;SDS011;7379;51.506;11.876;2023-04-24T02:58:30;1.70;;;1.60;;
14584;SDS011;7379;51.506;11.876;2023-04-24T03:00:57;1.40;;;1.27;;
14584;SDS011;7379;51.506;11.876;2023-04-24T03:03:25;1.23;;;1.13;;
14584;SDS011;7379;51.506;11.876;2023-04-24T03:05:53;1.60;;;1.50;;
14584;SDS011;7379;51.506;11.876;2023-04-24T03:08:20;5.30;;;1.50;;
14584;SDS011;7379;51.506;11.876;2023-04-24T03:10:47;1.65;;;1.40;;
14584;SDS011;7379;51.506;11.876;2023-04-24T03:13:14;1.50;;;1.40;;
14584;SDS011;7379;51.506;11.876;2023-04-24T03:15:42;1.40;;;1.30;;
14584;SDS011;7379;51.506;11.876;2023-04-24T03:18:09;1.58;;;1.48;;
14584;SDS011;7379;51.506;11.876;2023-04-24T03:20:36;1.38;;;1.20;;
14584;SDS011;7379;51.506;11.876;2023-04-24T03:23:04;1.67;;;1.27;;
14584;SDS011;7379;51.506;11.876;2023-04-24T03:25:31;1.38;;;1.27;;
14584;SDS011;7379;51.506;11.876;2023-04-24T03:27:58;1.50;;;1.30;;
14584;SDS011;7379;51.506;11.876;2023-04-24T03:30:25;1.42;;;1.30;;
14584;SDS011;7379;51.506;11.876;2023-04-24T03:32:51;1.52;;;1.40;;
14584;SDS011;7379;51.506;11.876;2023-04-24T03:35:18;1.40;;;1.30;;
14584;SDS011;7379;51.506;11.876;2023-04-24T03:37:46;1.45;;;1.35;;
14584;SDS011;7379;51.506;11.876;2023-04-24T03:40:14;1.50;;;1.40;;
14584;SDS011;7379;51.506;11.876;2023-04-24T03:42:41;1.45;;;1.25;;
14584;SDS011;7379;51.506;11.876;2023-04-24T03:45:08;1.55;;;1.45;;
14584;SDS011;7379;51.506;11.876;2023-04-24T03:47:35;1.60;;;1.50;;
14584;SDS011;7379;51.506;11.876;2023-04-24T03:50:02;1.77;;;1.20;;
14584;SDS011;7379;51.506;11.876;2023-04-24T03:52:30;1.92;;;1.48;;
14584;SDS011;7379;51.506;11.876;2023-04-24T03:54:56;1.20;;;1.10;;
14584;SDS011;7379;51.506;11.876;2023-04-24T03:57:25;2.03;;;1.40;;
14584;SDS011;7379;51.506;11.876;2023-04-24T03:59:51;1.60;;;1.50;;
14584;SDS011;7379;51.506;11.876;2023-04-24T04:02:19;1.77;;;1.40;;
14584;SDS011;7379;51.506;11.876;2023-04-24T04:04:45;1.30;;;1.20;;
14584;SDS011;7379;51.506;11.876;2023-04-24T04:07:12;2.33;;;1.23;;
14584;SDS011;7379;51.506;11.876;2023-04-24T04:09:39;1.70;;;1.27;;
14584;SDS011;7379;51.506;11.876;2023-04-24T04:12:06;1.38;;;1.27;;
14584;SDS011;7379;51.506;11.876;2023-04-24T04:14:34;1.52;;;1.40;;
14584;SDS011;7379;51.506;11.876;2023-04-24T04:17:01;1.42;;;1.30;;
14584;SDS011;7379;51.506;11.876;2023-04-24T04:19:27;1.70;;;1.40;;
14584;SDS011;7379;51.506;11.876;2023-04-24T04:21:54;2.50;;;1.30;;
14584;SDS011;7379;51.506;11.876;2023-04-24T04:24:21;1.33;;;1.23;;
14584;SDS011;7379;51.506;11.876;2023-04-24T04:26:49;1.50;;;1.40;;
14584;SDS011;7379;51.506;11.876;2023-04-24T04:29:16;2.88;;;1.50;;
14584;SDS011;7379;51.506;11.876;2023-04-24T04:31:44;6.20;;;1.27;;
14584;SDS011;7379;51.506;11.876;2023-04-24T04:34:11;1.85;;;1.60;;
14584;SDS011;7379;51.506;11.876;2023-04-24T04:36:39;2.13;;;1.55;;
14584;SDS011;7379;51.506;11.876;2023-04-24T04:39:06;1.92;;;1.40;;
14584;SDS011;7379;51.506;11.876;2023-04-24T04:41:33;3.17;;;1.67;;
14584;SDS011;7379;51.506;11.876;2023-04-24T04:44:00;1.83;;;1.40;;
14584;SDS011;7379;51.506;11.876;2023-04-24T04:46:29;4.68;;;1.60;;
14584;SDS011;7379;51.506;11.876;2023-04-24T04:48:58;2.50;;;1.50;;
14584;SDS011;7379;51.506;11.876;2023-04-24T04:51:26;1.55;;;1.42;;
14584;SDS011;7379;51.506;11.876;2023-04-24T04:53:53;1.45;;;1.30;;
14584;SDS011;7379;51.506;11.876;2023-04-24T04:56:20;3.55;;;1.60;;
14584;SDS011;7379;51.506;11.876;2023-04-24T04:58:47;3.28;;;1.50;;
14584;SDS011;7379;51.506;11.876;2023-04-24T05:01:14;6.40;;;1.80;;
14584;SDS011;7379;51.506;11.876;2023-04-24T05:03:41;1.85;;;1.52;;
14584;SDS011;7379;51.506;11.876;2023-04-24T05:06:09;4.40;;;1.80;;
14584;SDS011;7379;51.506;11.876;2023-04-24T05:08:36;4.30;;;1.70;;
14584;SDS011;7379;51.506;11.876;2023-04-24T05:11:02;3.80;;;1.70;;
14584;SDS011;7379;51.506;11.876;2023-04-24T05:13:29;4.32;;;1.80;;
14584;SDS011;7379;51.506;11.876;2023-04-24T05:15:57;2.55;;;1.63;;
14584;SDS011;7379;51.506;11.876;2023-04-24T05:18:24;3.20;;;1.40;;
14584;SDS011;7379;51.506;11.876;2023-04-24T05:20:50;1.92;;;1.40;;
14584;SDS011;7379;51.506;11.876;2023-04-24T05:23:19;3.33;;;1.65;;
14584;SDS011;7379;51.506;11.876;2023-04-24T05:25:45;2.80;;;1.77;;
14584;SDS011;7379;51.506;11.876;2023-04-24T05:28:12;1.90;;;1.40;;
14584;SDS011;7379;51.506;11.876;2023-04-24T05:30:40;1.85;;;1.65;;
14584;SDS011;7379;51.506;11.876;2023-04-24T05:33:07;3.50;;;1.33;;
14584;SDS011;7379;51.506;11.876;2023-04-24T05:35:34;6.70;;;2.25;;
14584;SDS011;7379;51.506;11.876;2023-04-24T05:38:01;2.85;;;1.45;;
14584;SDS011;7379;51.506;11.876;2023-04-24T05:40:29;2.20;;;1.23;;
14584;SDS011;7379;51.506;11.876;2023-04-24T05:42:56;4.05;;;1.58;;
14584;SDS011;7379;51.506;11.876;2023-04-24T05:45:23;2.30;;;1.60;;
14584;SDS011;7379;51.506;11.876;2023-04-24T05:47:50;1.95;;;1.38;;
14584;SDS011;7379;51.506;11.876;2023-04-24T05:50:17;1.75;;;1.40;;
14584;SDS011;7379;51.506;11.876;2023-04-24T05:52:44;1.40;;;1.30;;
14584;SDS011;7379;51.506;11.876;2023-04-24T05:55:11;2.50;;;1.73;;
14584;SDS011;7379;51.506;11.876;2023-04-24T05:57:39;1.70;;;1.60;;
14584;SDS011;7379;51.506;11.876;2023-04-24T06:00:07;2.28;;;1.60;;
14584;SDS011;7379;51.506;11.876;2023-04-24T06:02:37;1.50;;;1.40;;
14584;SDS011;7379;51.506;11.876;2023-04-24T06:05:04;1.48;;;1.35;;
14584;SDS011;7379;51.506;11.876;2023-04-24T06:07:31;1.50;;;1.40;;
14584;SDS011;7379;51.506;11.876;2023-04-24T06:09:57;4.00;;;1.50;;
14584;SDS011;7379;51.506;11.876;2023-04-24T06:12:25;2.58;;;1.67;;
14584;SDS011;7379;51.506;11.876;2023-04-24T06:14:53;2.10;;;1.80;;
14584;SDS011;7379;51.506;11.876;2023-04-24T06:17:20;1.00;;;1.00;;
14584;SDS011;7379;51.506;11.876;2023-04-24T06:19:47;1.55;;;1.45;;
14584;SDS011;7379;51.506;11.876;2023-04-24T06:22:14;2.65;;;1.58;;
14584;SDS011;7379;51.506;11.876;2023-04-24T06:24:41;1.63;;;1.40;;
14584;SDS011;7379;51.506;11.876;2023-04-24T06:27:08;1.38;;;1.27;;
14584;SDS011;7379;51.506;11.876;2023-04-24T06:29:35;1.45;;;1.35;;
14584;SDS011;7379;51.506;11.876;2023-04-24T06:32:04;3.08;;;1.50;;
14584;SDS011;7379;51.506;11.876;2023-04-24T06:34:30;1.73;;;1.63;;
14584;SDS011;7379;51.506;11.876;2023-04-24T06:36:59;1.88;;;1.42;;
14584;SDS011;7379;51.506;11.876;2023-04-24T06:39:25;2.10;;;1.50;;
14584;SDS011;7379;51.506;11.876;2023-04-24T06:41:52;1.98;;;1.52;;
14584;SDS011;7379;51.506;11.876;2023-04-24T06:44:19;1.75;;;1.42;;
14584;SDS011;7379;51.506;11.876;2023-04-24T06:46:46;1.50;;;1.40;;
14584;SDS011;7379;51.506;11.876;2023-04-24T06:49:14;1.50;;;1.40;;
14584;SDS011;7379;51.506;11.876;2023-04-24T06:51:41;1.50;;;1.40;;
14584;SDS011;7379;51.506;11.876;2023-04-24T06:54:08;3.47;;;1.67;;
14584;SDS011;7379;51.506;11.876;2023-04-24T06:56:34;1.45;;;1.35;;
14584;SDS011;7379;51.506;11.876;2023-04-24T06:59:01;1.60;;;1.50;;
14584;SDS011;7379;51.506;11.876;2023-04-24T07:01:28;1.50;;;1.38;;
14584;SDS011;7379;51.506;11.876;2023-04-24T07:03:55;4.07;;;1.60;;
14584;SDS011;7379;51.506;11.876;2023-04-24T07:06:23;3.42;;;1.63;;
14584;SDS011;7379;51.506;11.876;2023-04-24T07:08:50;1.58;;;1.40;;
14584;SDS011;7379;51.506;11.876;2023-04-24T07:11:17;1.98;;;1.60;;
14584;SDS011;7379;51.506;11.876;2023-04-24T07:13:45;2.10;;;1.45;;
14584;SDS011;7379;51.506;11.876;2023-04-24T07:16:11;1.52;;;1.42;;
14584;SDS011;7379;51.506;11.876;2023-04-24T07:18:38;2.55;;;1.52;;
14584;SDS011;7379;51.506;11.876;2023-04-24T07:21:05;1.58;;;1.40;;
14584;SDS011;7379;51.506;11.876;2023-04-24T07:23:33;1.95;;;1.50;;
14584;SDS011;7379;51.506;11.876;2023-04-24T07:26:00;1.85;;;1.40;;
14584;SDS011;7379;51.506;11.876;2023-04-24T07:28:27;1.42;;;1.33;;
14584;SDS011;7379;51.506;11.876;2023-04-24T07:30:56;2.17;;;1.58;;
14584;SDS011;7379;51.506;11.876;2023-04-24T07:33:24;1.85;;;1.38;;
14584;SDS011;7379;51.506;11.876;2023-04-24T07:35:51;2.47;;;1.40;;
14584;SDS011;7379;51.506;11.876;2023-04-24T07:38:18;2.58;;;1.38;;
14584;SDS011;7379;51.506;11.876;2023-04-24T07:40:48;1.67;;;1.23;;
14584;SDS011;7379;51.506;11.876;2023-04-24T07:43:15;1.50;;;1.40;;
14584;SDS011;7379;51.506;11.876;2023-04-24T07:45:42;1.45;;;1.35;;
14584;SDS011;7379;51.506;11.876;2023-04-24T07:48:09;1.75;;;1.60;;
14584;SDS011;7379;51.506;11.876;2023-04-24T07:50:35;3.47;;;1.42;;
14584;SDS011;7379;51.506;11.876;2023-04-24T07:53:02;1.70;;;1.30;;
14584;SDS011;7379;51.506;11.876;2023-04-24T07:55:29;2.80;;;1.60;;
14584;SDS011;7379;51.506;11.876;2023-04-24T07:57:57;2.15;;;1.42;;
14584;SDS011;7379;51.506;11.876;2023-04-24T08:00:24;2.38;;;1.58;;
14584;SDS011;7379;51.506;11.876;2023-04-24T08:02:51;2.40;;;1.55;;
14584;SDS011;7379;51.506;11.876;2023-04-24T08:05:18;1.20;;;1.10;;
14584;SDS011;7379;51.506;11.876;2023-04-24T08:07:45;1.45;;;1.30;;
14584;SDS011;7379;51.506;11.876;2023-04-24T08:10:13;1.65;;;1.30;;
14584;SDS011;7379;51.506;11.876;2023-04-24T08:12:40;1.42;;;1.33;;
14584;SDS011;7379;51.506;11.876;2023-04-24T08:15:09;1.45;;;1.20;;
14584;SDS011;7379;51.506;11.876;2023-04-24T08:17:36;2.13;;;1.50;;
14584;SDS011;7379;51.506;11.876;2023-04-24T08:20:03;1.30;;;1.20;;
14584;SDS011;7379;51.506;11.876;2023-04-24T08:22:35;5.55;;;1.45;;
14584;SDS011;7379;51.506;11.876;2023-04-24T08:25:02;1.73;;;1.50;;
14584;SDS011;7379;51.506;11.876;2023-04-24T08:27:29;1.35;;;1.25;;
14584;SDS011;7379;51.506;11.876;2023-04-24T08:29:56;1.50;;;1.40;;
14584;SDS011;7379;51.506;11.876;2023-04-24T08:32:25;1.50;;;1.40;;
14584;SDS011;7379;51.506;11.876;2023-04-24T08:34:55;1.35;;;1.25;;
14584;SDS011;7379;51.506;11.876;2023-04-24T08:37:22;1.52;;;1.30;;
14584;SDS011;7379;51.506;11.876;2023-04-24T08:39:49;1.95;;;1.40;;
14584;SDS011;7379;51.506;11.876;2023-04-24T08:42:16;1.50;;;1.20;;
14584;SDS011;7379;51.506;11.876;2023-04-24T08:44:43;2.28;;;1.50;;
14584;SDS011;7379;51.506;11.876;2023-04-24T08:47:10;2.55;;;1.42;;
14584;SDS011;7379;51.506;11.876;2023-04-24T08:49:39;2.53;;;1.58;;
14584;SDS011;7379;51.506;11.876;2023-04-24T08:52:06;1.38;;;1.27;;
14584;SDS011;7379;51.506;11.876;2023-04-24T08:54:33;1.40;;;1.30;;
14584;SDS011;7379;51.506;11.876;2023-04-24T08:57:01;2.80;;;1.23;;
14584;SDS011;7379;51.506;11.876;2023-04-24T08:59:28;2.58;;;1.52;;
14584;SDS011;7379;51.506;11.876;2023-04-24T09:01:56;1.42;;;1.33;;
14584;SDS011;7379;51.506;11.876;2023-04-24T09:04:24;2.40;;;1.55;;
14584;SDS011;7379;51.506;11.876;2023-04-24T09:10:15;2.28;;;1.48;;
14584;SDS011;7379;51.506;11.876;2023-04-24T09:12:42;1.40;;;1.30;;
14584;SDS011;7379;51.506;11.876;2023-04-24T09:15:11;2.08;;;1.40;;
14584;SDS011;7379;51.506;11.876;2023-04-24T09:17:38;2.10;;;1.50;;
14584;SDS011;7379;51.506;11.876;2023-04-24T09:20:05;1.98;;;1.45;;
14584;SDS011;7379;51.506;11.876;2023-04-24T09:22:33;3.25;;;1.35;;
14584;SDS011;7379;51.506;11.876;2023-04-24T09:25:02;1.77;;;1.50;;
14584;SDS011;7379;51.506;11.876;2023-04-24T09:27:32;1.40;;;1.30;;
14584;SDS011;7379;51.506;11.876;2023-04-24T09:30:00;2.35;;;1.30;;
14584;SDS011;7379;51.506;11.876;2023-04-24T09:32:27;1.98;;;1.40;;
14584;SDS011;7379;51.506;11.876;2023-04-24T09:35:08;2.90;;;1.48;;
14584;SDS011;7379;51.506;11.876;2023-04-24T09:37:36;1.75;;;1.40;;
14584;SDS011;7379;51.506;11.876;2023-04-24T09:40:13;1.83;;;1.52;;
14584;SDS011;7379;51.506;11.876;2023-04-24T09:42:45;2.90;;;1.52;;
14584;SDS011;7379;51.506;11.876;2023-04-24T09:45:17;1.38;;;1.27;;
14584;SDS011;7379;51.506;11.876;2023-04-24T09:47:44;1.60;;;1.50;;
14584;SDS011;7379;51.506;11.876;2023-04-24T09:50:12;1.58;;;1.38;;
14584;SDS011;7379;51.506;11.876;2023-04-24T09:52:41;2.63;;;1.70;;
14584;SDS011;7379;51.506;11.876;2023-04-24T09:55:13;2.00;;;1.50;;
14584;SDS011;7379;51.506;11.876;2023-04-24T09:57:50;1.73;;;1.50;;
14584;SDS011;7379;51.506;11.876;2023-04-24T10:00:18;1.58;;;1.40;;
14584;SDS011;7379;51.506;11.876;2023-04-24T10:02:49;2.15;;;1.50;;
14584;SDS011;7379;51.506;11.876;2023-04-24T10:05:17;2.92;;;1.50;;
14584;SDS011;7379;51.506;11.876;2023-04-24T10:07:44;2.40;;;1.60;;
14584;SDS011;7379;51.506;11.876;2023-04-24T10:10:11;1.80;;;1.60;;
14584;SDS011;7379;51.506;11.876;2023-04-24T10:12:38;1.67;;;1.58;;
14584;SDS011;7379;51.506;11.876;2023-04-24T10:15:08;1.70;;;1.60;;
14584;SDS011;7379;51.506;11.876;2023-04-24T10:17:38;2.78;;;1.58;;
14584;SDS011;7379;51.506;11.876;2023-04-24T10:20:06;1.60;;;1.50;;
14584;SDS011;7379;51.506;11.876;2023-04-24T10:22:33;2.08;;;1.67;;
14584;SDS011;7379;51.506;11.876;2023-04-24T10:25:01;1.50;;;1.40;;
14584;SDS011;7379;51.506;11.876;2023-04-24T10:27:31;1.60;;;1.50;;
14584;SDS011;7379;51.506;11.876;2023-04-24T10:30:00;1.90;;;1.70;;
14584;SDS011;7379;51.506;11.876;2023-04-24T10:32:29;1.52;;;1.42;;
14584;SDS011;7379;51.506;11.876;2023-04-24T10:34:56;1.73;;;1.60;;
14584;SDS011;7379;51.506;11.876;2023-04-24T10:37:23;1.70;;;1.60;;
14584;SDS011;7379;51.506;11.876;2023-04-24T10:39:51;4.15;;;2.13;;
14584;SDS011;7379;51.506;11.876;2023-04-24T10:42:19;1.80;;;1.63;;
14584;SDS011;7379;51.506;11.876;2023-04-24T10:44:47;3.40;;;1.60;;
14584;SDS011;7379;51.506;11.876;2023-04-24T10:47:14;2.83;;;1.70;;
14584;SDS011;7379;51.506;11.876;2023-04-24T10:49:42;2.55;;;1.63;;
14584;SDS011;7379;51.506;11.876;2023-04-24T10:52:09;1.77;;;1.63;;
14584;SDS011;7379;51.506;11.876;2023-04-24T10:54:41;1.98;;;1.70;;
14584;SDS011;7379;51.506;11.876;2023-04-24T10:57:25;1.70;;;1.60;;
14584;SDS011;7379;51.506;11.876;2023-04-24T11:00:14;2.03;;;1.45;;
14584;SDS011;7379;51.506;11.876;2023-04-24T11:02:45;3.50;;;1.48;;
14584;SDS011;7379;51.506;11.876;2023-04-24T11:05:19;2.08;;;1.70;;
14584;SDS011;7379;51.506;11.876;2023-04-24T11:10:39;1.80;;;1.70;;
14584;SDS011;7379;51.506;11.876;2023-04-24T11:13:07;2.67;;;1.92;;
14584;SDS011;7379;51.506;11.876;2023-04-24T11:15:34;2.10;;;1.60;;
14584;SDS011;7379;51.506;11.876;2023-04-24T11:18:01;1.83;;;1.50;;
14584;SDS011;7379;51.506;11.876;2023-04-24T11:20:29;3.28;;;1.70;;
14584;SDS011;7379;51.506;11.876;2023-04-24T11:22:57;2.33;;;1.75;;
14584;SDS011;7379;51.506;11.876;2023-04-24T11:25:31;1.77;;;1.67;;
14584;SDS011;7379;51.506;11.876;2023-04-24T11:28:02;1.73;;;1.60;;
14584;SDS011;7379;51.506;11.876;2023-04-24T11:30:31;2.08;;;1.88;;
14584;SDS011;7379;51.506;11.876;2023-04-24T11:33:01;2.63;;;1.70;;
14584;SDS011;7379;51.506;11.876;2023-04-24T11:35:30;2.28;;;1.60;;
14584;SDS011;7379;51.506;11.876;2023-04-24T11:38:03;1.98;;;1.50;;
14584;SDS011;7379;51.506;11.876;2023-04-24T11:40:31;1.90;;;1.70;;
14584;SDS011;7379;51.506;11.876;2023-04-24T11:42:59;1.98;;;1.80;;
14584;SDS011;7379;51.506;11.876;2023-04-24T11:45:27;2.97;;;1.73;;
14584;SDS011;7379;51.506;11.876;2023-04-24T11:47:54;1.75;;;1.52;;
14584;SDS011;7379;51.506;11.876;2023-04-24T11:50:21;1.95;;;1.80;;
14584;SDS011;7379;51.506;11.876;2023-04-24T11:52:52;3.03;;;1.90;;
14584;SDS011;7379;51.506;11.876;2023-04-24T11:55:26;2.10;;;1.90;;
14584;SDS011;7379;51.506;11.876;2023-04-24T11:57:54;1.80;;;1.70;;
14584;SDS011;7379;51.506;11.876;2023-04-24T12:00:23;2.45;;;1.90;;
14584;SDS011;7379;51.506;11.876;2023-04-24T12:02:51;2.97;;;1.90;;
14584;SDS011;7379;51.506;11.876;2023-04-24T12:05:29;2.05;;;1.90;;
14584;SDS011;7379;51.506;11.876;2023-04-24T12:07:58;2.00;;;1.80;;
14584;SDS011;7379;51.506;11.876;2023-04-24T12:10:26;3.28;;;2.15;;
14584;SDS011;7379;51.506;11.876;2023-04-24T12:12:54;1.98;;;1.77;;
14584;SDS011;7379;51.506;11.876;2023-04-24T12:15:22;2.58;;;1.92;;
14584;SDS011;7379;51.506;11.876;2023-04-24T12:17:50;2.10;;;1.90;;
14584;SDS011;7379;51.506;11.876;2023-04-24T12:20:23;3.47;;;2.15;;
14584;SDS011;7379;51.506;11.876;2023-04-24T12:22:51;2.05;;;1.80;;
14584;SDS011;7379;51.506;11.876;2023-04-24T12:25:21;3.22;;;1.90;;
14584;SDS011;7379;51.506;11.876;2023-04-24T12:27:52;2.50;;;1.88;;
14584;SDS011;7379;51.506;11.876;2023-04-24T12:30:21;2.35;;;1.70;;
14584;SDS011;7379;51.506;11.876;2023-04-24T12:32:52;4.72;;;1.90;;
14584;SDS011;7379;51.506;11.876;2023-04-24T12:35:20;2.20;;;2.00;;
14584;SDS011;7379;51.506;11.876;2023-04-24T12:37:48;2.10;;;1.88;;
14584;SDS011;7379;51.506;11.876;2023-04-24T12:40:16;2.58;;;1.85;;
14584;SDS011;7379;51.506;11.876;2023-04-24T12:42:46;2.15;;;1.95;;
14584;SDS011;7379;51.506;11.876;2023-04-24T12:45:14;2.22;;;1.65;;
14584;SDS011;7379;51.506;11.876;2023-04-24T12:47:42;2.40;;;2.10;;
14584;SDS011;7379;51.506;11.876;2023-04-24T12:50:10;2.10;;;1.88;;
14584;SDS011;7379;51.506;11.876;2023-04-24T12:52:38;2.63;;;1.73;;
14584;SDS011;7379;51.506;11.876;2023-04-24T12:55:06;3.25;;;1.67;;
14584;SDS011;7379;51.506;11.876;2023-04-24T12:57:34;3.65;;;1.70;;
14584;SDS011;7379;51.506;11.876;2023-04-24T13:00:04;2.08;;;1.85;;
14584;SDS011;7379;51.506;11.876;2023-04-24T13:02:32;2.05;;;1.83;;
14584;SDS011;7379;51.506;11.876;2023-04-24T13:05:00;2.92;;;1.83;;
14584;SDS011;7379;51.506;11.876;2023-04-24T13:07:27;3.08;;;1.80;;
14584;SDS011;7379;51.506;11.876;2023-04-24T13:09:54;2.75;;;1.83;;
14584;SDS011;7379;51.506;11.876;2023-04-24T13:12:22;1.70;;;1.60;;
14584;SDS011;7379;51.506;11.876;2023-04-24T13:14:50;1.95;;;1.58;;
14584;SDS011;7379;51.506;11.876;2023-04-24T13:17:18;1.67;;;1.40;;
14584;SDS011;7379;51.506;11.876;2023-04-24T13:19:45;1.88;;;1.77;;
14584;SDS011;7379;51.506;11.876;2023-04-24T13:22:12;2.35;;;1.90;;
14584;SDS011;7379;51.506;11.876;2023-04-24T13:24:39;3.53;;;1.90;;
14584;SDS011;7379;51.506;11.876;2023-04-24T13:27:06;1.67;;;1.55;;
14584;SDS011;7379;51.506;11.876;2023-04-24T13:29:34;2.00;;;1.67;;
14584;SDS011;7379;51.506;11.876;2023-04-24T13:32:00;2.92;;;1.70;;
14584;SDS011;7379;51.506;11.876;2023-04-24T13:34:29;1.88;;;1.77;;
14584;SDS011;7379;51.506;11.876;2023-04-24T13:36:56;1.73;;;1.50;;
14584;SDS011;7379;51.506;11.876;2023-04-24T13:39:24;2.17;;;1.65;;
14584;SDS011;7379;51.506;11.876;2023-04-24T13:41:51;3.03;;;1.70;;
14584;SDS011;7379;51.506;11.876;2023-04-24T13:44:18;2.67;;;1.70;;
14584;SDS011;7379;51.506;11.876;2023-04-24T13:46:47;2.33;;;1.85;;
14584;SDS011;7379;51.506;11.876;2023-04-24T13:49:15;1.65;;;1.55;;
14584;SDS011;7379;51.506;11.876;2023-04-24T13:51:43;4.00;;;1.80;;
14584;SDS011;7379;51.506;11.876;2023-04-24T13:54:10;2.60;;;1.88;;
14584;SDS011;7379;51.506;11.876;2023-04-24T13:56:38;2.47;;;1.60;;
14584;SDS011;7379;51.506;11.876;2023-04-24T13:59:05;2.00;;;1.80;;
14584;SDS011;7379;51.506;11.876;2023-04-24T14:01:32;2.58;;;1.50;;
14584;SDS011;7379;51.506;11.876;2023-04-24T14:03:59;3.40;;;1.70;;
14584;SDS011;7379;51.506;11.876;2023-04-24T14:06:26;3.05;;;1.60;;
14584;SDS011;7379;51.506;11.876;2023-04-24T14:08:54;4.93;;;1.67;;
14584;SDS011;7379;51.506;11.876;2023-04-24T14:11:21;3.30;;;1.52;;
14584;SDS011;7379;51.506;11.876;2023-04-24T14:13:47;5.15;;;1.55;;
14584;SDS011;7379;51.506;11.876;2023-04-24T14:16:15;2.50;;;1.20;;
14584;SDS011;7379;51.506;11.876;2023-04-24T14:18:41;2.30;;;1.10;;
14584;SDS011;7379;51.506;11.876;2023-04-24T14:21:08;2.13;;;1.30;;
14584;SDS011;7379;51.506;11.876;2023-04-24T14:23:35;2.17;;;1.35;;
14584;SDS011;7379;51.506;11.876;2023-04-24T14:26:03;1.50;;;1.05;;
14584;SDS011;7379;51.506;11.876;2023-04-24T14:28:30;2.40;;;1.33;;
14584;SDS011;7379;51.506;11.876;2023-04-24T14:30:57;1.73;;;1.30;;
14584;SDS011;7379;51.506;11.876;2023-04-24T14:33:24;2.17;;;1.35;;
14584;SDS011;7379;51.506;11.876;2023-04-24T14:35:50;3.55;;;1.25;;
14584;SDS011;7379;51.506;11.876;2023-04-24T14:38:17;0.82;;;0.80;;
14584;SDS011;7379;51.506;11.876;2023-04-24T14:40:44;1.77;;;0.85;;
14584;SDS011;7379;51.506;11.876;2023-04-24T14:43:12;1.10;;;1.00;;
14584;SDS011;7379;51.506;11.876;2023-04-24T14:45:39;1.20;;;1.10;;
14584;SDS011;7379;51.506;11.876;2023-04-24T14:48:06;1.20;;;0.93;;
14584;SDS011;7379;51.506;11.876;2023-04-24T14:50:34;0.95;;;0.90;;
14584;SDS011;7379;51.506;11.876;2023-04-24T14:53:00;1.00;;;1.00;;
14584;SDS011;7379;51.506;11.876;2023-04-24T14:55:27;1.05;;;0.95;;
14584;SDS011;7379;51.506;11.876;2023-04-24T14:57:54;0.63;;;0.63;;